sensor_id;sensor_type;location;lat;lon;timestamp;pressure;altitude;pressure_sealevel;temperature;humidity
32851;BME280;19202;48.992;8.390;2023-01-29T00:02:58;101663.00;;;4.06;58.02
32851;BME280;19202;48.992;8.390;2023-01-29T00:08:37;101650.78;;;4.08;57.97
32851;BME280;19202;48.992;8.390;2023-01-29T00:14:15;101662.16;;;4.10;57.74
32851;BME280;19202;48.992;8.390;2023-01-29T00:19:53;101660.38;;;4.06;57.73
32851;BME280;19202;48.992;8.390;2023-01-29T00:25:31;101651.63;;;4.07;58.00
32851;BME280;19202;48.992;8.390;2023-01-29T00:31:11;101655.13;;;4.08;57.92
32851;BME280;19202;48.992;8.390;2023-01-29T00:36:49;101656.88;;;4.07;57.76
32851;BME280;19202;48.992;8.390;2023-01-29T00:42:27;101667.28;;;4.01;57.53
32851;BME280;19202;48.992;8.390;2023-01-29T00:48:24;101649.78;;;3.99;57.73
32851;BME280;19202;48.992;8.390;2023-01-29T00:54:03;101652.47;;;4.03;57.93
32851;BME280;19202;48.992;8.390;2023-01-29T00:59:43;101666.47;;;4.07;58.01
32851;BME280;19202;48.992;8.390;2023-01-29T01:05:21;101658.66;;;4.11;57.86
32851;BME280;19202;48.992;8.390;2023-01-29T01:11:04;101663.88;;;4.08;57.31
32851;BME280;19202;48.992;8.390;2023-01-29T01:16:44;101660.38;;;4.06;57.63
32851;BME280;19202;48.992;8.390;2023-01-29T01:22:23;101662.91;;;4.00;57.31
32851;BME280;19202;48.992;8.390;2023-01-29T01:28:01;101666.38;;;3.99;57.72
32851;BME280;19202;48.992;8.390;2023-01-29T01:33:39;101668.16;;;4.02;57.80
32851;BME280;19202;48.992;8.390;2023-01-29T01:39:17;101677.81;;;4.06;57.69
32851;BME280;19202;48.992;8.390;2023-01-29T01:45:00;101674.31;;;4.05;56.94
32851;BME280;19202;48.992;8.390;2023-01-29T01:56:33;101663.66;;;3.90;57.18
32851;BME280;19202;48.992;8.390;2023-01-29T02:02:15;101659.22;;;3.85;55.85
32851;BME280;19202;48.992;8.390;2023-01-29T02:08:13;101662.72;;;3.85;57.61
32851;BME280;19202;48.992;8.390;2023-01-29T02:14:11;101654.91;;;3.88;57.65
32851;BME280;19202;48.992;8.390;2023-01-29T02:20:11;101659.34;;;3.94;57.15
32851;BME280;19202;48.992;8.390;2023-01-29T02:26:15;101663.59;;;3.84;57.08
32851;BME280;19202;48.992;8.390;2023-01-29T02:37:47;101656.56;;;3.80;57.53
32851;BME280;19202;48.992;8.390;2023-01-29T02:49:30;101652.25;;;3.85;57.60
32851;BME280;19202;48.992;8.390;2023-01-29T02:55:18;101651.34;;;3.83;57.25
32851;BME280;19202;48.992;8.390;2023-01-29T03:01:02;101638.25;;;3.85;57.75
32851;BME280;19202;48.992;8.390;2023-01-29T03:06:46;101640.94;;;3.86;57.69
32851;BME280;19202;48.992;8.390;2023-01-29T03:12:27;101636.53;;;3.85;57.52
32851;BME280;19202;48.992;8.390;2023-01-29T03:18:13;101635.63;;;3.80;57.12
32851;BME280;19202;48.992;8.390;2023-01-29T03:23:54;101641.72;;;3.81;57.65
32851;BME280;19202;48.992;8.390;2023-01-29T03:29:53;101634.72;;;3.80;57.59
32851;BME280;19202;48.992;8.390;2023-01-29T03:36:00;101641.69;;;3.78;57.29
32851;BME280;19202;48.992;8.390;2023-01-29T03:41:57;101647.81;;;3.78;57.51
32851;BME280;19202;48.992;8.390;2023-01-29T03:47:44;101638.22;;;3.80;57.73
32851;BME280;19202;48.992;8.390;2023-01-29T03:53:40;101642.59;;;3.80;57.48
32851;BME280;19202;48.992;8.390;2023-01-29T03:59:40;101641.63;;;3.73;57.44
32851;BME280;19202;48.992;8.390;2023-01-29T04:05:24;101653.00;;;3.75;57.99
32851;BME280;19202;48.992;8.390;2023-01-29T04:11:13;101658.19;;;3.72;58.15
32851;BME280;19202;48.992;8.390;2023-01-29T04:16:56;101656.47;;;3.74;57.87
32851;BME280;19202;48.992;8.390;2023-01-29T04:22:37;101644.25;;;3.73;58.05
32851;BME280;19202;48.992;8.390;2023-01-29T04:28:21;101656.47;;;3.74;58.06
32851;BME280;19202;48.992;8.390;2023-01-29T04:34:20;101657.34;;;3.75;57.42
32851;BME280;19202;48.992;8.390;2023-01-29T04:40:19;101659.03;;;3.70;57.81
32851;BME280;19202;48.992;8.390;2023-01-29T04:46:19;101655.50;;;3.66;57.67
32851;BME280;19202;48.992;8.390;2023-01-29T05:03:42;101652.81;;;3.60;58.37
32851;BME280;19202;48.992;8.390;2023-01-29T05:09:23;101665.91;;;3.63;58.16
32851;BME280;19202;48.992;8.390;2023-01-29T05:15:07;101666.00;;;3.69;58.26
32851;BME280;19202;48.992;8.390;2023-01-29T05:20:46;101642.50;;;3.72;58.34
32851;BME280;19202;48.992;8.390;2023-01-29T05:26:25;101627.69;;;3.74;58.24
32851;BME280;19202;48.992;8.390;2023-01-29T05:32:23;101620.69;;;3.73;57.75
32851;BME280;19202;48.992;8.390;2023-01-29T05:38:01;101634.56;;;3.68;58.01
32851;BME280;19202;48.992;8.390;2023-01-29T05:43:39;101610.16;;;3.69;58.35
32851;BME280;19202;48.992;8.390;2023-01-29T05:49:17;101631.97;;;3.71;58.27
32851;BME280;19202;48.992;8.390;2023-01-29T05:54:57;101621.47;;;3.66;58.19
32851;BME280;19202;48.992;8.390;2023-01-29T06:00:34;101644.16;;;3.67;58.63
32851;BME280;19202;48.992;8.390;2023-01-29T06:06:12;101647.69;;;3.69;58.13
32851;BME280;19202;48.992;8.390;2023-01-29T06:11:51;101651.03;;;3.59;57.54
32851;BME280;19202;48.992;8.390;2023-01-29T06:17:29;101648.25;;;3.46;57.75
32851;BME280;19202;48.992;8.390;2023-01-29T06:23:07;101656.03;;;3.42;58.08
32851;BME280;19202;48.992;8.390;2023-01-29T06:28:48;101648.97;;;3.34;58.39
32851;BME280;19202;48.992;8.390;2023-01-29T06:34:26;101636.88;;;3.45;58.67
32851;BME280;19202;48.992;8.390;2023-01-29T06:40:04;101649.97;;;3.47;58.18
32851;BME280;19202;48.992;8.390;2023-01-29T06:45:50;101639.44;;;3.40;57.93
32851;BME280;19202;48.992;8.390;2023-01-29T06:51:29;101636.78;;;3.36;58.15
32851;BME280;19202;48.992;8.390;2023-01-29T06:57:06;101625.38;;;3.32;58.25
32851;BME280;19202;48.992;8.390;2023-01-29T07:02:48;101635.06;;;3.38;58.27
32851;BME280;19202;48.992;8.390;2023-01-29T07:08:26;101642.09;;;3.42;58.01
32851;BME280;19202;48.992;8.390;2023-01-29T07:14:05;101645.63;;;3.44;58.10
32851;BME280;19202;48.992;8.390;2023-01-29T07:19:43;101650.78;;;3.41;57.67
32851;BME280;19202;48.992;8.390;2023-01-29T07:25:21;101656.00;;;3.38;58.19
32851;BME280;19202;48.992;8.390;2023-01-29T07:30:59;101656.97;;;3.46;58.28
32851;BME280;19202;48.992;8.390;2023-01-29T07:36:37;101653.53;;;3.50;58.06
32851;BME280;19202;48.992;8.390;2023-01-29T07:42:15;101663.06;;;3.47;58.11
32851;BME280;19202;48.992;8.390;2023-01-29T07:47:55;101688.41;;;3.49;58.23
32851;BME280;19202;48.992;8.390;2023-01-29T07:53:33;101690.34;;;3.62;57.97
32851;BME280;19202;48.992;8.390;2023-01-29T07:59:12;101698.16;;;3.61;57.96
32851;BME280;19202;48.992;8.390;2023-01-29T08:04:51;101699.91;;;3.60;58.31
32851;BME280;19202;48.992;8.390;2023-01-29T08:10:29;101697.41;;;3.71;58.13
32851;BME280;19202;48.992;8.390;2023-01-29T08:16:07;101705.34;;;3.75;57.52
32851;BME280;19202;48.992;8.390;2023-01-29T08:21:45;101701.00;;;3.77;57.49
32851;BME280;19202;48.992;8.390;2023-01-29T08:27:23;101703.69;;;3.83;57.52
32851;BME280;19202;48.992;8.390;2023-01-29T08:33:02;101712.53;;;3.91;57.29
32851;BME280;19202;48.992;8.390;2023-01-29T08:38:41;101707.19;;;3.82;56.94
32851;BME280;19202;48.992;8.390;2023-01-29T08:44:19;101709.06;;;3.92;57.46
32851;BME280;19202;48.992;8.390;2023-01-29T08:49:57;101713.50;;;3.99;56.83
32851;BME280;19202;48.992;8.390;2023-01-29T08:55:36;101711.06;;;4.11;56.75
32851;BME280;19202;48.992;8.390;2023-01-29T09:01:15;101699.06;;;4.32;56.80
32851;BME280;19202;48.992;8.390;2023-01-29T09:06:53;101696.63;;;4.47;55.27
32851;BME280;19202;48.992;8.390;2023-01-29T09:12:30;101702.66;;;5.39;53.88
32851;BME280;19202;48.992;8.390;2023-01-29T09:18:08;101719.88;;;6.48;52.58
32851;BME280;19202;48.992;8.390;2023-01-29T09:23:46;101726.09;;;7.13;48.40
32851;BME280;19202;48.992;8.390;2023-01-29T09:29:24;101710.28;;;7.42;49.59
32851;BME280;19202;48.992;8.390;2023-01-29T09:35:01;101691.81;;;7.61;48.49
32851;BME280;19202;48.992;8.390;2023-01-29T09:41:05;101656.66;;;7.72;46.13
32851;BME280;19202;48.992;8.390;2023-01-29T09:46:47;101648.56;;;8.15;45.58
32851;BME280;19202;48.992;8.390;2023-01-29T09:52:32;101658.91;;;8.51;46.58
32851;BME280;19202;48.992;8.390;2023-01-29T10:04:30;101652.31;;;9.08;43.43
32851;BME280;19202;48.992;8.390;2023-01-29T10:10:26;101660.56;;;9.65;42.09
32851;BME280;19202;48.992;8.390;2023-01-29T10:16:17;101663.97;;;9.76;41.60
32851;BME280;19202;48.992;8.390;2023-01-29T10:28:15;101672.97;;;9.60;43.22
32851;BME280;19202;48.992;8.390;2023-01-29T10:33:58;101665.28;;;9.37;42.52
32851;BME280;19202;48.992;8.390;2023-01-29T10:39:37;101683.13;;;9.11;42.25
32851;BME280;19202;48.992;8.390;2023-01-29T10:51:51;101685.94;;;8.91;42.33
32851;BME280;19202;48.992;8.390;2023-01-29T11:03:32;101662.59;;;8.31;43.44
32851;BME280;19202;48.992;8.390;2023-01-29T11:09:28;101654.72;;;8.19;42.27
32851;BME280;19202;48.992;8.390;2023-01-29T11:15:18;101626.56;;;8.21;43.32
32851;BME280;19202;48.992;8.390;2023-01-29T11:21:02;101623.69;;;8.60;43.29
32851;BME280;19202;48.992;8.390;2023-01-29T11:26:42;101610.75;;;9.31;40.55
32851;BME280;19202;48.992;8.390;2023-01-29T11:38:27;101593.97;;;11.17;37.13
32851;BME280;19202;48.992;8.390;2023-01-29T11:44:17;101589.53;;;12.42;35.12
32851;BME280;19202;48.992;8.390;2023-01-29T11:49:57;101579.84;;;14.33;33.83
32851;BME280;19202;48.992;8.390;2023-01-29T11:55:37;101569.53;;;15.02;31.94
32851;BME280;19202;48.992;8.390;2023-01-29T12:01:17;101551.72;;;14.24;32.33
32851;BME280;19202;48.992;8.390;2023-01-29T12:07:00;101547.34;;;15.27;31.27
32851;BME280;19202;48.992;8.390;2023-01-29T12:12:41;101535.38;;;14.89;32.17
32851;BME280;19202;48.992;8.390;2023-01-29T12:18:29;101522.22;;;15.80;30.97
32851;BME280;19202;48.992;8.390;2023-01-29T12:24:32;101518.84;;;15.04;30.77
32851;BME280;19202;48.992;8.390;2023-01-29T12:30:18;101511.75;;;13.40;33.19
32851;BME280;19202;48.992;8.390;2023-01-29T12:36:11;101490.31;;;12.82;33.92
32851;BME280;19202;48.992;8.390;2023-01-29T12:42:02;101476.16;;;13.44;34.08
32851;BME280;19202;48.992;8.390;2023-01-29T12:47:55;101470.66;;;13.50;33.17
32851;BME280;19202;48.992;8.390;2023-01-29T12:53:38;101457.44;;;13.76;33.55
32851;BME280;19202;48.992;8.390;2023-01-29T12:59:30;101443.69;;;14.44;33.37
32851;BME280;19202;48.992;8.390;2023-01-29T13:05:22;101428.03;;;14.08;31.56
32851;BME280;19202;48.992;8.390;2023-01-29T13:11:07;101436.34;;;14.76;33.00
32851;BME280;19202;48.992;8.390;2023-01-29T13:16:50;101419.19;;;14.83;32.14
32851;BME280;19202;48.992;8.390;2023-01-29T13:22:35;101433.00;;;15.19;31.66
32851;BME280;19202;48.992;8.390;2023-01-29T13:28:18;101432.66;;;14.80;31.26
32851;BME280;19202;48.992;8.390;2023-01-29T13:34:11;101429.59;;;14.66;31.72
32851;BME280;19202;48.992;8.390;2023-01-29T13:39:52;101437.63;;;13.86;32.13
32851;BME280;19202;48.992;8.390;2023-01-29T13:45:41;101443.69;;;13.04;33.26
32851;BME280;19202;48.992;8.390;2023-01-29T13:51:21;101442.19;;;12.61;34.14
32851;BME280;19202;48.992;8.390;2023-01-29T13:57:01;101438.50;;;12.33;34.35
32851;BME280;19202;48.992;8.390;2023-01-29T14:02:39;101421.97;;;11.87;34.84
32851;BME280;19202;48.992;8.390;2023-01-29T14:20:39;101406.50;;;11.69;35.03
32851;BME280;19202;48.992;8.390;2023-01-29T14:26:38;101402.63;;;11.82;35.72
32851;BME280;19202;48.992;8.390;2023-01-29T14:32:23;101394.53;;;12.23;35.64
32851;BME280;19202;48.992;8.390;2023-01-29T14:38:04;101394.28;;;11.60;35.36
32851;BME280;19202;48.992;8.390;2023-01-29T14:43:42;101396.94;;;10.79;36.65
32851;BME280;19202;48.992;8.390;2023-01-29T14:49:55;101393.94;;;10.53;36.97
32851;BME280;19202;48.992;8.390;2023-01-29T15:01:34;101407.81;;;10.17;37.88
32851;BME280;19202;48.992;8.390;2023-01-29T15:07:16;101398.19;;;9.57;38.91
32851;BME280;19202;48.992;8.390;2023-01-29T15:13:03;101403.13;;;9.21;39.87
32851;BME280;19202;48.992;8.390;2023-01-29T15:18:45;101399.38;;;8.66;40.67
32851;BME280;19202;48.992;8.390;2023-01-29T15:24:25;101416.53;;;8.20;41.96
32851;BME280;19202;48.992;8.390;2023-01-29T15:30:05;101410.56;;;8.00;42.32
32851;BME280;19202;48.992;8.390;2023-01-29T15:35:45;101400.22;;;7.79;42.62
32851;BME280;19202;48.992;8.390;2023-01-29T15:41:24;101414.44;;;7.50;43.47
32851;BME280;19202;48.992;8.390;2023-01-29T15:47:02;101400.69;;;6.96;45.06
32851;BME280;19202;48.992;8.390;2023-01-29T15:52:40;101397.31;;;6.62;45.68
32851;BME280;19202;48.992;8.390;2023-01-29T15:58:25;101390.38;;;6.37;46.88
32851;BME280;19202;48.992;8.390;2023-01-29T16:04:04;101398.31;;;6.04;48.70
32851;BME280;19202;48.992;8.390;2023-01-29T16:09:43;101401.81;;;5.87;48.53
32851;BME280;19202;48.992;8.390;2023-01-29T16:27:12;101420.06;;;5.35;50.59
32851;BME280;19202;48.992;8.390;2023-01-29T16:32:51;101420.00;;;5.09;51.69
32851;BME280;19202;48.992;8.390;2023-01-29T16:38:31;101419.06;;;4.93;52.14
32851;BME280;19202;48.992;8.390;2023-01-29T16:50:30;101411.16;;;4.86;53.64
32851;BME280;19202;48.992;8.390;2023-01-29T16:56:12;101404.09;;;4.70;54.39
32851;BME280;19202;48.992;8.390;2023-01-29T17:01:53;101404.84;;;4.49;55.03
32851;BME280;19202;48.992;8.390;2023-01-29T17:07:32;101405.72;;;4.47;54.93
32851;BME280;19202;48.992;8.390;2023-01-29T17:13:19;101403.88;;;4.35;55.79
32851;BME280;19202;48.992;8.390;2023-01-29T17:18:59;101395.94;;;4.21;56.28
32851;BME280;19202;48.992;8.390;2023-01-29T17:24:38;101382.63;;;3.88;58.43
32851;BME280;19202;48.992;8.390;2023-01-29T17:30:18;101389.63;;;3.92;57.96
32851;BME280;19202;48.992;8.390;2023-01-29T17:35:57;101387.03;;;3.92;58.04
32851;BME280;19202;48.992;8.390;2023-01-29T17:41:36;101380.84;;;3.84;58.68
32851;BME280;19202;48.992;8.390;2023-01-29T17:47:14;101385.16;;;3.81;58.46
32851;BME280;19202;48.992;8.390;2023-01-29T17:52:52;101398.09;;;3.63;60.03
32851;BME280;19202;48.992;8.390;2023-01-29T17:58:31;101401.53;;;3.57;59.92
32851;BME280;19202;48.992;8.390;2023-01-29T18:04:08;101409.38;;;3.57;61.03
32851;BME280;19202;48.992;8.390;2023-01-29T18:09:46;101407.66;;;3.58;60.02
32851;BME280;19202;48.992;8.390;2023-01-29T18:15:24;101397.19;;;3.59;60.69
32851;BME280;19202;48.992;8.390;2023-01-29T18:21:02;101392.69;;;3.43;61.69
32851;BME280;19202;48.992;8.390;2023-01-29T18:26:41;101397.09;;;3.49;60.91
32851;BME280;19202;48.992;8.390;2023-01-29T18:32:19;101396.13;;;3.36;62.12
32851;BME280;19202;48.992;8.390;2023-01-29T18:37:56;101411.69;;;3.28;62.60
32851;BME280;19202;48.992;8.390;2023-01-29T18:43:39;101422.16;;;3.27;63.51
32851;BME280;19202;48.992;8.390;2023-01-29T18:49:17;101416.78;;;3.15;64.36
32851;BME280;19202;48.992;8.390;2023-01-29T18:54:55;101421.06;;;3.07;64.35
32851;BME280;19202;48.992;8.390;2023-01-29T19:00:33;101431.50;;;3.04;64.38
32851;BME280;19202;48.992;8.390;2023-01-29T19:06:11;101432.41;;;3.09;63.72
32851;BME280;19202;48.992;8.390;2023-01-29T19:11:49;101428.97;;;3.13;63.91
32851;BME280;19202;48.992;8.390;2023-01-29T19:17:27;101435.91;;;3.11;63.87
32851;BME280;19202;48.992;8.390;2023-01-29T19:23:05;101420.22;;;3.11;63.92
32851;BME280;19202;48.992;8.390;2023-01-29T19:28:43;101421.88;;;3.03;65.25
32851;BME280;19202;48.992;8.390;2023-01-29T19:34:21;101418.34;;;2.98;64.63
32851;BME280;19202;48.992;8.390;2023-01-29T19:39:59;101407.00;;;2.96;64.50
32851;BME280;19202;48.992;8.390;2023-01-29T19:45:37;101414.84;;;2.96;64.46
32851;BME280;19202;48.992;8.390;2023-01-29T19:51:15;101400.75;;;2.85;65.17
32851;BME280;19202;48.992;8.390;2023-01-29T19:56:53;101402.47;;;2.83;65.08
32851;BME280;19202;48.992;8.390;2023-01-29T20:02:32;101405.00;;;2.77;66.29
32851;BME280;19202;48.992;8.390;2023-01-29T20:08:09;101403.94;;;2.63;67.85
32851;BME280;19202;48.992;8.390;2023-01-29T20:13:50;101400.38;;;2.56;67.77
32851;BME280;19202;48.992;8.390;2023-01-29T20:19:28;101392.53;;;2.54;66.95
32851;BME280;19202;48.992;8.390;2023-01-29T20:25:06;101387.28;;;2.54;67.09
32851;BME280;19202;48.992;8.390;2023-01-29T20:30:45;101393.31;;;2.47;67.94
32851;BME280;19202;48.992;8.390;2023-01-29T20:36:23;101388.84;;;2.42;68.41
32851;BME280;19202;48.992;8.390;2023-01-29T20:42:01;101382.69;;;2.35;69.82
32851;BME280;19202;48.992;8.390;2023-01-29T20:47:39;101379.94;;;2.28;69.63
32851;BME280;19202;48.992;8.390;2023-01-29T20:53:17;101380.81;;;2.25;70.29
32851;BME280;19202;48.992;8.390;2023-01-29T20:58:55;101381.47;;;2.11;70.84
32851;BME280;19202;48.992;8.390;2023-01-29T21:04:33;101377.78;;;2.00;71.72
32851;BME280;19202;48.992;8.390;2023-01-29T21:10:11;101375.44;;;2.16;71.59
32851;BME280;19202;48.992;8.390;2023-01-29T21:22:24;101371.81;;;2.05;72.10
32851;BME280;19202;48.992;8.390;2023-01-29T21:28:01;101371.81;;;2.05;73.07
32851;BME280;19202;48.992;8.390;2023-01-29T21:33:41;101363.84;;;1.98;72.99
32851;BME280;19202;48.992;8.390;2023-01-29T21:39:19;101366.63;;;2.08;71.77
32851;BME280;19202;48.992;8.390;2023-01-29T21:45:00;101361.63;;;2.23;70.89
32851;BME280;19202;48.992;8.390;2023-01-29T21:50:39;101360.47;;;2.03;72.18
32851;BME280;19202;48.992;8.390;2023-01-29T21:56:17;101362.19;;;2.03;71.40
32851;BME280;19202;48.992;8.390;2023-01-29T22:01:57;101361.19;;;1.93;72.69
32851;BME280;19202;48.992;8.390;2023-01-29T22:07:36;101355.91;;;1.90;73.63
32851;BME280;19202;48.992;8.390;2023-01-29T22:13:13;101361.13;;;1.90;74.32
32851;BME280;19202;48.992;8.390;2023-01-29T22:18:52;101345.56;;;1.96;72.78
32851;BME280;19202;48.992;8.390;2023-01-29T22:24:30;101333.28;;;1.89;73.53
32851;BME280;19202;48.992;8.390;2023-01-29T22:30:08;101339.31;;;1.85;74.06
32851;BME280;19202;48.992;8.390;2023-01-29T22:35:52;101329.63;;;1.78;75.89
32851;BME280;19202;48.992;8.390;2023-01-29T22:41:30;101300.34;;;1.97;74.34
32851;BME280;19202;48.992;8.390;2023-01-29T22:47:10;101295.72;;;1.78;76.30
32851;BME280;19202;48.992;8.390;2023-01-29T22:52:48;101279.06;;;1.70;76.29
32851;BME280;19202;48.992;8.390;2023-01-29T22:58:30;101272.28;;;1.81;75.53
32851;BME280;19202;48.992;8.390;2023-01-29T23:04:08;101274.66;;;1.67;77.12
32851;BME280;19202;48.992;8.390;2023-01-29T23:09:46;101258.25;;;1.73;76.63
32851;BME280;19202;48.992;8.390;2023-01-29T23:15:23;101258.34;;;1.79;75.98
32851;BME280;19202;48.992;8.390;2023-01-29T23:21:02;101256.81;;;1.93;76.38
32851;BME280;19202;48.992;8.390;2023-01-29T23:26:40;101265.44;;;1.89;76.12
32851;BME280;19202;48.992;8.390;2023-01-29T23:32:37;101258.44;;;1.88;75.95
32851;BME280;19202;48.992;8.390;2023-01-29T23:38:14;101241.09;;;1.90;75.98
32851;BME280;19202;48.992;8.390;2023-01-29T23:43:52;101232.16;;;1.73;76.66
32851;BME280;19202;48.992;8.390;2023-01-29T23:49:30;101232.91;;;1.66;78.06
32851;BME280;19202;48.992;8.390;2023-01-29T23:55:08;101230.28;;;1.63;78.00
